sensor_id;sensor_type;location;lat;lon;timestamp;P1;durP1;ratioP1;P2;durP2;ratioP2
51020;SDS011;38907;45.562;8.856;2024-01-25T00:04:19;74.95;;;53.75;;
51020;SDS011;38907;45.562;8.856;2024-01-25T00:09:23;84.05;;;56.05;;
51020;SDS011;38907;45.562;8.856;2024-01-25T00:14:24;95.07;;;59.03;;
51020;SDS011;38907;45.562;8.856;2024-01-25T00:19:26;85.70;;;55.83;;
51020;SDS011;38907;45.562;8.856;2024-01-25T00:24:29;82.95;;;53.58;;
51020;SDS011;38907;45.562;8.856;2024-01-25T00:29:31;71.95;;;50.90;;
51020;SDS011;38907;45.562;8.856;2024-01-25T00:39:38;75.28;;;50.92;;
51020;SDS011;38907;45.562;8.856;2024-01-25T00:49:42;79.72;;;50.47;;
51020;SDS011;38907;45.562;8.856;2024-01-25T00:54:46;74.32;;;49.78;;
51020;SDS011;38907;45.562;8.856;2024-01-25T01:04:50;70.30;;;48.90;;
51020;SDS011;38907;45.562;8.856;2024-01-25T01:09:54;70.18;;;50.53;;
51020;SDS011;38907;45.562;8.856;2024-01-25T01:14:56;73.57;;;49.53;;
51020;SDS011;38907;45.562;8.856;2024-01-25T01:19:57;71.25;;;49.78;;
51020;SDS011;38907;45.562;8.856;2024-01-25T01:25:01;66.82;;;47.88;;
51020;SDS011;38907;45.562;8.856;2024-01-25T01:30:03;73.18;;;47.97;;
51020;SDS011;38907;45.562;8.856;2024-01-25T01:35:08;63.42;;;45.72;;
51020;SDS011;38907;45.562;8.856;2024-01-25T01:40:11;62.53;;;45.10;;
51020;SDS011;38907;45.562;8.856;2024-01-25T01:45:13;66.65;;;47.70;;
51020;SDS011;38907;45.562;8.856;2024-01-25T01:50:15;70.25;;;46.55;;
51020;SDS011;38907;45.562;8.856;2024-01-25T01:55:19;67.03;;;45.35;;
51020;SDS011;38907;45.562;8.856;2024-01-25T02:00:21;66.20;;;46.58;;
51020;SDS011;38907;45.562;8.856;2024-01-25T02:05:23;66.43;;;43.38;;
51020;SDS011;38907;45.562;8.856;2024-01-25T02:10:26;63.17;;;44.38;;
51020;SDS011;38907;45.562;8.856;2024-01-25T02:15:28;56.78;;;39.67;;
51020;SDS011;38907;45.562;8.856;2024-01-25T02:20:30;61.83;;;42.35;;
51020;SDS011;38907;45.562;8.856;2024-01-25T02:25:33;57.90;;;40.47;;
51020;SDS011;38907;45.562;8.856;2024-01-25T02:30:35;54.03;;;39.72;;
51020;SDS011;38907;45.562;8.856;2024-01-25T02:35:37;57.10;;;40.42;;
51020;SDS011;38907;45.562;8.856;2024-01-25T02:40:40;52.50;;;38.60;;
51020;SDS011;38907;45.562;8.856;2024-01-25T02:50:44;55.80;;;39.80;;
51020;SDS011;38907;45.562;8.856;2024-01-25T02:55:47;54.58;;;38.22;;
51020;SDS011;38907;45.562;8.856;2024-01-25T03:00:49;50.53;;;36.97;;
51020;SDS011;38907;45.562;8.856;2024-01-25T03:05:51;51.72;;;36.30;;
51020;SDS011;38907;45.562;8.856;2024-01-25T03:10:54;47.58;;;35.00;;
51020;SDS011;38907;45.562;8.856;2024-01-25T03:15:57;49.08;;;35.15;;
51020;SDS011;38907;45.562;8.856;2024-01-25T03:20:58;54.88;;;35.97;;
51020;SDS011;38907;45.562;8.856;2024-01-25T03:26:02;47.63;;;34.60;;
51020;SDS011;38907;45.562;8.856;2024-01-25T03:31:04;53.97;;;37.15;;
51020;SDS011;38907;45.562;8.856;2024-01-25T03:36:06;45.20;;;33.95;;
51020;SDS011;38907;45.562;8.856;2024-01-25T03:41:10;47.78;;;32.67;;
51020;SDS011;38907;45.562;8.856;2024-01-25T03:46:12;46.90;;;34.03;;
51020;SDS011;38907;45.562;8.856;2024-01-25T03:51:13;50.15;;;36.55;;
51020;SDS011;38907;45.562;8.856;2024-01-25T03:56:17;52.08;;;35.10;;
51020;SDS011;38907;45.562;8.856;2024-01-25T04:01:19;52.42;;;35.72;;
51020;SDS011;38907;45.562;8.856;2024-01-25T04:06:21;51.92;;;34.45;;
51020;SDS011;38907;45.562;8.856;2024-01-25T04:11:24;50.35;;;34.67;;
51020;SDS011;38907;45.562;8.856;2024-01-25T04:16:26;47.47;;;33.38;;
51020;SDS011;38907;45.562;8.856;2024-01-25T04:21:28;42.58;;;31.15;;
51020;SDS011;38907;45.562;8.856;2024-01-25T04:26:31;45.33;;;30.27;;
51020;SDS011;38907;45.562;8.856;2024-01-25T04:31:33;45.78;;;30.60;;
51020;SDS011;38907;45.562;8.856;2024-01-25T04:36:34;38.30;;;29.48;;
51020;SDS011;38907;45.562;8.856;2024-01-25T04:41:38;39.13;;;29.00;;
51020;SDS011;38907;45.562;8.856;2024-01-25T04:46:40;40.08;;;28.92;;
51020;SDS011;38907;45.562;8.856;2024-01-25T04:51:42;38.83;;;28.37;;
51020;SDS011;38907;45.562;8.856;2024-01-25T04:56:45;39.92;;;28.95;;
51020;SDS011;38907;45.562;8.856;2024-01-25T05:01:47;41.55;;;27.85;;
51020;SDS011;38907;45.562;8.856;2024-01-25T05:06:49;38.78;;;27.92;;
51020;SDS011;38907;45.562;8.856;2024-01-25T05:11:52;39.67;;;28.90;;
51020;SDS011;38907;45.562;8.856;2024-01-25T05:16:58;38.10;;;28.42;;
51020;SDS011;38907;45.562;8.856;2024-01-25T05:22:00;40.17;;;27.48;;
51020;SDS011;38907;45.562;8.856;2024-01-25T05:27:07;40.33;;;29.60;;
51020;SDS011;38907;45.562;8.856;2024-01-25T05:32:09;43.67;;;30.20;;
51020;SDS011;38907;45.562;8.856;2024-01-25T05:37:11;45.53;;;30.10;;
51020;SDS011;38907;45.562;8.856;2024-01-25T05:42:14;54.45;;;36.70;;
51020;SDS011;38907;45.562;8.856;2024-01-25T05:47:16;50.58;;;33.95;;
51020;SDS011;38907;45.562;8.856;2024-01-25T05:52:17;50.55;;;35.35;;
51020;SDS011;38907;45.562;8.856;2024-01-25T05:57:22;49.33;;;34.45;;
51020;SDS011;38907;45.562;8.856;2024-01-25T06:02:24;55.83;;;39.33;;
51020;SDS011;38907;45.562;8.856;2024-01-25T06:07:25;53.47;;;38.50;;
51020;SDS011;38907;45.562;8.856;2024-01-25T06:12:29;51.05;;;36.13;;
51020;SDS011;38907;45.562;8.856;2024-01-25T06:17:31;48.22;;;35.45;;
51020;SDS011;38907;45.562;8.856;2024-01-25T06:22:33;54.17;;;40.30;;
51020;SDS011;38907;45.562;8.856;2024-01-25T06:27:36;53.85;;;38.92;;
51020;SDS011;38907;45.562;8.856;2024-01-25T06:32:37;54.28;;;38.17;;
51020;SDS011;38907;45.562;8.856;2024-01-25T06:37:40;48.05;;;37.03;;
51020;SDS011;38907;45.562;8.856;2024-01-25T06:42:43;58.88;;;38.78;;
51020;SDS011;38907;45.562;8.856;2024-01-25T06:47:45;57.30;;;42.30;;
51020;SDS011;38907;45.562;8.856;2024-01-25T06:52:47;61.88;;;40.78;;
51020;SDS011;38907;45.562;8.856;2024-01-25T06:57:50;63.25;;;45.35;;
51020;SDS011;38907;45.562;8.856;2024-01-25T07:02:52;63.38;;;45.90;;
51020;SDS011;38907;45.562;8.856;2024-01-25T07:07:53;74.50;;;51.22;;
51020;SDS011;38907;45.562;8.856;2024-01-25T07:12:56;74.35;;;48.88;;
51020;SDS011;38907;45.562;8.856;2024-01-25T07:17:58;74.72;;;50.65;;
51020;SDS011;38907;45.562;8.856;2024-01-25T07:23:00;81.35;;;53.90;;
51020;SDS011;38907;45.562;8.856;2024-01-25T07:28:03;76.30;;;56.20;;
51020;SDS011;38907;45.562;8.856;2024-01-25T07:33:05;87.15;;;56.88;;
51020;SDS011;38907;45.562;8.856;2024-01-25T07:38:09;83.60;;;59.00;;
51020;SDS011;38907;45.562;8.856;2024-01-25T07:43:12;91.25;;;60.95;;
51020;SDS011;38907;45.562;8.856;2024-01-25T07:48:14;87.53;;;64.00;;
51020;SDS011;38907;45.562;8.856;2024-01-25T07:53:15;94.63;;;66.53;;
51020;SDS011;38907;45.562;8.856;2024-01-25T07:58:19;88.90;;;63.03;;
51020;SDS011;38907;45.562;8.856;2024-01-25T08:03:20;92.30;;;66.03;;
51020;SDS011;38907;45.562;8.856;2024-01-25T08:08:22;94.97;;;68.53;;
51020;SDS011;38907;45.562;8.856;2024-01-25T08:13:25;102.88;;;69.03;;
51020;SDS011;38907;45.562;8.856;2024-01-25T08:18:28;99.75;;;70.15;;
51020;SDS011;38907;45.562;8.856;2024-01-25T08:23:30;108.50;;;76.78;;
51020;SDS011;38907;45.562;8.856;2024-01-25T08:28:33;103.30;;;74.68;;
51020;SDS011;38907;45.562;8.856;2024-01-25T08:33:35;105.65;;;75.20;;
51020;SDS011;38907;45.562;8.856;2024-01-25T08:38:37;101.65;;;72.75;;
51020;SDS011;38907;45.562;8.856;2024-01-25T08:43:40;110.32;;;76.65;;
51020;SDS011;38907;45.562;8.856;2024-01-25T08:48:42;109.95;;;71.68;;
51020;SDS011;38907;45.562;8.856;2024-01-25T08:53:44;105.80;;;75.60;;
51020;SDS011;38907;45.562;8.856;2024-01-25T08:58:47;103.70;;;72.63;;
51020;SDS011;38907;45.562;8.856;2024-01-25T09:03:50;97.80;;;71.50;;
51020;SDS011;38907;45.562;8.856;2024-01-25T09:08:52;101.10;;;70.82;;
51020;SDS011;38907;45.562;8.856;2024-01-25T09:13:55;102.88;;;73.93;;
51020;SDS011;38907;45.562;8.856;2024-01-25T09:18:57;105.80;;;81.88;;
51020;SDS011;38907;45.562;8.856;2024-01-25T09:23:58;107.60;;;79.78;;
51020;SDS011;38907;45.562;8.856;2024-01-25T09:29:02;106.25;;;78.63;;
51020;SDS011;38907;45.562;8.856;2024-01-25T09:34:04;105.13;;;81.50;;
51020;SDS011;38907;45.562;8.856;2024-01-25T09:39:06;110.68;;;80.68;;
51020;SDS011;38907;45.562;8.856;2024-01-25T09:44:10;113.18;;;81.57;;
51020;SDS011;38907;45.562;8.856;2024-01-25T09:49:12;110.93;;;81.75;;
51020;SDS011;38907;45.562;8.856;2024-01-25T09:54:14;115.00;;;81.93;;
51020;SDS011;38907;45.562;8.856;2024-01-25T09:59:18;108.50;;;81.68;;
51020;SDS011;38907;45.562;8.856;2024-01-25T10:04:21;105.82;;;80.78;;
51020;SDS011;38907;45.562;8.856;2024-01-25T10:09:24;112.20;;;81.87;;
51020;SDS011;38907;45.562;8.856;2024-01-25T10:14:28;106.25;;;79.80;;
51020;SDS011;38907;45.562;8.856;2024-01-25T10:19:30;115.68;;;85.07;;
51020;SDS011;38907;45.562;8.856;2024-01-25T10:24:32;116.85;;;88.85;;
51020;SDS011;38907;45.562;8.856;2024-01-25T10:29:36;114.95;;;87.93;;
51020;SDS011;38907;45.562;8.856;2024-01-25T10:34:37;121.28;;;90.82;;
51020;SDS011;38907;45.562;8.856;2024-01-25T10:39:40;109.13;;;82.88;;
51020;SDS011;38907;45.562;8.856;2024-01-25T10:44:44;99.60;;;74.63;;
51020;SDS011;38907;45.562;8.856;2024-01-25T10:49:46;92.78;;;71.35;;
51020;SDS011;38907;45.562;8.856;2024-01-25T10:54:49;93.07;;;67.20;;
51020;SDS011;38907;45.562;8.856;2024-01-25T10:59:52;86.80;;;65.38;;
51020;SDS011;38907;45.562;8.856;2024-01-25T11:04:54;91.43;;;63.60;;
51020;SDS011;38907;45.562;8.856;2024-01-25T11:09:56;94.05;;;63.47;;
51020;SDS011;38907;45.562;8.856;2024-01-25T11:14:59;93.15;;;64.30;;
51020;SDS011;38907;45.562;8.856;2024-01-25T11:20:12;89.40;;;65.90;;
51020;SDS011;38907;45.562;8.856;2024-01-25T11:25:18;92.70;;;64.97;;
51020;SDS011;38907;45.562;8.856;2024-01-25T11:30:22;93.72;;;63.70;;
51020;SDS011;38907;45.562;8.856;2024-01-25T11:35:25;90.43;;;63.17;;
51020;SDS011;38907;45.562;8.856;2024-01-25T11:40:27;91.82;;;63.70;;
51020;SDS011;38907;45.562;8.856;2024-01-25T11:45:31;90.55;;;62.63;;
51020;SDS011;38907;45.562;8.856;2024-01-25T11:50:33;96.78;;;62.47;;
51020;SDS011;38907;45.562;8.856;2024-01-25T11:55:35;103.28;;;66.03;;
51020;SDS011;38907;45.562;8.856;2024-01-25T12:00:38;94.78;;;65.55;;
51020;SDS011;38907;45.562;8.856;2024-01-25T12:05:40;94.57;;;63.15;;
51020;SDS011;38907;45.562;8.856;2024-01-25T12:10:42;100.82;;;68.38;;
51020;SDS011;38907;45.562;8.856;2024-01-25T12:15:46;101.25;;;74.63;;
51020;SDS011;38907;45.562;8.856;2024-01-25T12:20:47;111.88;;;76.18;;
51020;SDS011;38907;45.562;8.856;2024-01-25T12:25:49;109.00;;;81.20;;
51020;SDS011;38907;45.562;8.856;2024-01-25T12:30:53;111.07;;;83.50;;
51020;SDS011;38907;45.562;8.856;2024-01-25T12:35:55;114.45;;;86.10;;
51020;SDS011;38907;45.562;8.856;2024-01-25T12:40:58;124.97;;;94.78;;
51020;SDS011;38907;45.562;8.856;2024-01-25T12:46:02;120.00;;;92.68;;
51020;SDS011;38907;45.562;8.856;2024-01-25T12:56:06;125.85;;;96.38;;
51020;SDS011;38907;45.562;8.856;2024-01-25T13:01:09;130.77;;;101.10;;
51020;SDS011;38907;45.562;8.856;2024-01-25T13:11:13;147.75;;;111.78;;
51020;SDS011;38907;45.562;8.856;2024-01-25T13:16:16;143.05;;;109.53;;
51020;SDS011;38907;45.562;8.856;2024-01-25T13:21:18;138.57;;;105.57;;
51020;SDS011;38907;45.562;8.856;2024-01-25T13:26:20;148.73;;;108.82;;
51020;SDS011;38907;45.562;8.856;2024-01-25T13:31:23;138.20;;;104.25;;
51020;SDS011;38907;45.562;8.856;2024-01-25T13:36:25;133.80;;;103.93;;
51020;SDS011;38907;45.562;8.856;2024-01-25T13:41:26;135.13;;;102.75;;
51020;SDS011;38907;45.562;8.856;2024-01-25T13:46:30;133.18;;;101.78;;
51020;SDS011;38907;45.562;8.856;2024-01-25T13:51:32;130.18;;;100.43;;
51020;SDS011;38907;45.562;8.856;2024-01-25T13:56:33;130.48;;;103.13;;
51020;SDS011;38907;45.562;8.856;2024-01-25T14:01:37;134.00;;;105.63;;
51020;SDS011;38907;45.562;8.856;2024-01-25T14:06:38;137.60;;;104.13;;
51020;SDS011;38907;45.562;8.856;2024-01-25T14:11:41;139.05;;;104.15;;
51020;SDS011;38907;45.562;8.856;2024-01-25T14:16:44;133.73;;;97.97;;
51020;SDS011;38907;45.562;8.856;2024-01-25T14:21:46;129.80;;;97.95;;
51020;SDS011;38907;45.562;8.856;2024-01-25T14:26:49;127.50;;;97.43;;
51020;SDS011;38907;45.562;8.856;2024-01-25T14:31:52;127.93;;;98.10;;
51020;SDS011;38907;45.562;8.856;2024-01-25T14:36:54;126.72;;;97.47;;
51020;SDS011;38907;45.562;8.856;2024-01-25T14:41:55;124.53;;;96.65;;
51020;SDS011;38907;45.562;8.856;2024-01-25T14:46:59;138.25;;;106.07;;
51020;SDS011;38907;45.562;8.856;2024-01-25T14:52:00;133.73;;;104.03;;
51020;SDS011;38907;45.562;8.856;2024-01-25T14:57:03;139.27;;;104.78;;
51020;SDS011;38907;45.562;8.856;2024-01-25T15:02:07;140.95;;;105.35;;
51020;SDS011;38907;45.562;8.856;2024-01-25T15:07:09;145.68;;;107.82;;
51020;SDS011;38907;45.562;8.856;2024-01-25T15:12:11;142.82;;;107.43;;
51020;SDS011;38907;45.562;8.856;2024-01-25T15:17:14;140.32;;;103.97;;
51020;SDS011;38907;45.562;8.856;2024-01-25T15:22:16;137.93;;;104.28;;
51020;SDS011;38907;45.562;8.856;2024-01-25T15:27:17;136.60;;;103.78;;
51020;SDS011;38907;45.562;8.856;2024-01-25T15:32:21;137.60;;;103.03;;
51020;SDS011;38907;45.562;8.856;2024-01-25T15:37:23;136.90;;;105.40;;
51020;SDS011;38907;45.562;8.856;2024-01-25T15:42:25;139.82;;;105.07;;
51020;SDS011;38907;45.562;8.856;2024-01-25T15:47:32;137.05;;;102.88;;
51020;SDS011;38907;45.562;8.856;2024-01-25T15:52:34;136.30;;;104.65;;
51020;SDS011;38907;45.562;8.856;2024-01-25T15:57:35;137.45;;;102.97;;
51020;SDS011;38907;45.562;8.856;2024-01-25T16:02:39;137.50;;;102.95;;
51020;SDS011;38907;45.562;8.856;2024-01-25T16:07:40;137.15;;;105.22;;
51020;SDS011;38907;45.562;8.856;2024-01-25T16:12:42;137.30;;;105.15;;
51020;SDS011;38907;45.562;8.856;2024-01-25T16:17:45;147.43;;;108.95;;
51020;SDS011;38907;45.562;8.856;2024-01-25T16:22:47;146.40;;;109.57;;
51020;SDS011;38907;45.562;8.856;2024-01-25T16:32:51;153.83;;;112.23;;
51020;SDS011;38907;45.562;8.856;2024-01-25T16:37:53;146.30;;;109.00;;
51020;SDS011;38907;45.562;8.856;2024-01-25T16:42:54;140.60;;;107.22;;
51020;SDS011;38907;45.562;8.856;2024-01-25T16:47:57;136.93;;;104.40;;
51020;SDS011;38907;45.562;8.856;2024-01-25T16:52:59;157.05;;;112.40;;
51020;SDS011;38907;45.562;8.856;2024-01-25T16:58:02;156.00;;;114.72;;
51020;SDS011;38907;45.562;8.856;2024-01-25T17:03:06;158.03;;;114.73;;
51020;SDS011;38907;45.562;8.856;2024-01-25T17:08:08;172.65;;;128.52;;
51020;SDS011;38907;45.562;8.856;2024-01-25T17:13:10;176.80;;;132.02;;
51020;SDS011;38907;45.562;8.856;2024-01-25T17:18:13;169.33;;;123.10;;
51020;SDS011;38907;45.562;8.856;2024-01-25T17:23:15;169.85;;;122.70;;
51020;SDS011;38907;45.562;8.856;2024-01-25T17:28:17;161.38;;;116.95;;
51020;SDS011;38907;45.562;8.856;2024-01-25T17:33:20;167.63;;;121.72;;
51020;SDS011;38907;45.562;8.856;2024-01-25T17:38:22;166.77;;;119.85;;
51020;SDS011;38907;45.562;8.856;2024-01-25T17:43:24;184.23;;;138.27;;
51020;SDS011;38907;45.562;8.856;2024-01-25T17:48:27;183.05;;;136.13;;
51020;SDS011;38907;45.562;8.856;2024-01-25T17:53:29;188.82;;;137.98;;
51020;SDS011;38907;45.562;8.856;2024-01-25T17:58:31;201.68;;;155.32;;
51020;SDS011;38907;45.562;8.856;2024-01-25T18:03:34;183.10;;;135.25;;
51020;SDS011;38907;45.562;8.856;2024-01-25T18:08:36;189.80;;;138.20;;
51020;SDS011;38907;45.562;8.856;2024-01-25T18:13:39;190.63;;;138.35;;
51020;SDS011;38907;45.562;8.856;2024-01-25T18:18:42;193.98;;;140.43;;
51020;SDS011;38907;45.562;8.856;2024-01-25T18:23:44;178.80;;;127.85;;
51020;SDS011;38907;45.562;8.856;2024-01-25T18:28:45;203.85;;;134.18;;
51020;SDS011;38907;45.562;8.856;2024-01-25T18:33:49;193.00;;;133.43;;
51020;SDS011;38907;45.562;8.856;2024-01-25T18:38:50;219.57;;;147.13;;
51020;SDS011;38907;45.562;8.856;2024-01-25T18:43:52;255.02;;;161.38;;
51020;SDS011;38907;45.562;8.856;2024-01-25T18:48:55;244.68;;;154.75;;
51020;SDS011;38907;45.562;8.856;2024-01-25T18:53:57;169.45;;;118.43;;
51020;SDS011;38907;45.562;8.856;2024-01-25T18:59:00;162.13;;;112.43;;
51020;SDS011;38907;45.562;8.856;2024-01-25T19:04:03;153.02;;;109.68;;
51020;SDS011;38907;45.562;8.856;2024-01-25T19:09:06;149.68;;;106.75;;
51020;SDS011;38907;45.562;8.856;2024-01-25T19:14:09;155.90;;;109.40;;
51020;SDS011;38907;45.562;8.856;2024-01-25T19:19:12;170.57;;;118.95;;
51020;SDS011;38907;45.562;8.856;2024-01-25T19:24:15;170.30;;;117.63;;
51020;SDS011;38907;45.562;8.856;2024-01-25T19:29:19;152.77;;;109.70;;
51020;SDS011;38907;45.562;8.856;2024-01-25T19:34:23;149.10;;;105.00;;
51020;SDS011;38907;45.562;8.856;2024-01-25T19:39:25;174.35;;;115.80;;
51020;SDS011;38907;45.562;8.856;2024-01-25T19:44:27;179.68;;;121.10;;
51020;SDS011;38907;45.562;8.856;2024-01-25T19:49:30;152.95;;;105.65;;
51020;SDS011;38907;45.562;8.856;2024-01-25T19:54:31;160.75;;;112.95;;
51020;SDS011;38907;45.562;8.856;2024-01-25T19:59:33;160.88;;;111.43;;
51020;SDS011;38907;45.562;8.856;2024-01-25T20:04:38;146.85;;;107.72;;
51020;SDS011;38907;45.562;8.856;2024-01-25T20:09:42;147.77;;;104.78;;
51020;SDS011;38907;45.562;8.856;2024-01-25T20:14:44;159.32;;;108.97;;
51020;SDS011;38907;45.562;8.856;2024-01-25T20:19:48;154.75;;;105.90;;
51020;SDS011;38907;45.562;8.856;2024-01-25T20:24:51;151.65;;;107.85;;
51020;SDS011;38907;45.562;8.856;2024-01-25T20:34:56;143.30;;;102.55;;
51020;SDS011;38907;45.562;8.856;2024-01-25T20:39:58;148.77;;;104.10;;
51020;SDS011;38907;45.562;8.856;2024-01-25T20:45:00;162.65;;;112.55;;
51020;SDS011;38907;45.562;8.856;2024-01-25T20:50:04;157.98;;;110.95;;
51020;SDS011;38907;45.562;8.856;2024-01-25T20:55:07;151.95;;;106.03;;
51020;SDS011;38907;45.562;8.856;2024-01-25T21:00:09;166.32;;;117.72;;
51020;SDS011;38907;45.562;8.856;2024-01-25T21:05:14;182.13;;;125.65;;
51020;SDS011;38907;45.562;8.856;2024-01-25T21:10:17;197.43;;;127.93;;
51020;SDS011;38907;45.562;8.856;2024-01-25T21:20:24;178.38;;;117.25;;
51020;SDS011;38907;45.562;8.856;2024-01-25T21:25:25;180.02;;;120.50;;
51020;SDS011;38907;45.562;8.856;2024-01-25T21:30:27;166.10;;;114.97;;
51020;SDS011;38907;45.562;8.856;2024-01-25T21:35:30;170.63;;;118.90;;
51020;SDS011;38907;45.562;8.856;2024-01-25T21:40:32;189.70;;;126.93;;
51020;SDS011;38907;45.562;8.856;2024-01-25T21:45:35;220.77;;;143.75;;
51020;SDS011;38907;45.562;8.856;2024-01-25T21:50:38;226.48;;;138.85;;
51020;SDS011;38907;45.562;8.856;2024-01-25T21:55:40;190.30;;;125.07;;
51020;SDS011;38907;45.562;8.856;2024-01-25T22:00:42;167.88;;;115.70;;
51020;SDS011;38907;45.562;8.856;2024-01-25T22:05:45;162.27;;;110.90;;
51020;SDS011;38907;45.562;8.856;2024-01-25T22:10:47;155.38;;;108.93;;
51020;SDS011;38907;45.562;8.856;2024-01-25T22:15:49;167.15;;;118.55;;
51020;SDS011;38907;45.562;8.856;2024-01-25T22:20:54;145.68;;;104.57;;
51020;SDS011;38907;45.562;8.856;2024-01-25T22:25:56;133.32;;;94.32;;
51020;SDS011;38907;45.562;8.856;2024-01-25T22:30:58;138.82;;;98.55;;
51020;SDS011;38907;45.562;8.856;2024-01-25T22:36:01;141.02;;;99.75;;
51020;SDS011;38907;45.562;8.856;2024-01-25T22:41:04;142.70;;;100.68;;
51020;SDS011;38907;45.562;8.856;2024-01-25T22:46:06;145.90;;;98.03;;
51020;SDS011;38907;45.562;8.856;2024-01-25T22:51:09;138.25;;;97.75;;
51020;SDS011;38907;45.562;8.856;2024-01-25T22:56:11;148.00;;;98.57;;
51020;SDS011;38907;45.562;8.856;2024-01-25T23:01:14;143.48;;;98.53;;
51020;SDS011;38907;45.562;8.856;2024-01-25T23:06:17;150.18;;;100.97;;
51020;SDS011;38907;45.562;8.856;2024-01-25T23:11:19;141.18;;;95.57;;
51020;SDS011;38907;45.562;8.856;2024-01-25T23:16:21;144.40;;;98.38;;
51020;SDS011;38907;45.562;8.856;2024-01-25T23:21:24;148.65;;;99.07;;
51020;SDS011;38907;45.562;8.856;2024-01-25T23:26:29;136.10;;;90.65;;
51020;SDS011;38907;45.562;8.856;2024-01-25T23:31:30;140.25;;;93.13;;
51020;SDS011;38907;45.562;8.856;2024-01-25T23:36:34;122.70;;;87.03;;
51020;SDS011;38907;45.562;8.856;2024-01-25T23:41:36;120.00;;;83.47;;
51020;SDS011;38907;45.562;8.856;2024-01-25T23:46:38;126.45;;;86.13;;
51020;SDS011;38907;45.562;8.856;2024-01-25T23:51:41;124.32;;;86.38;;
51020;SDS011;38907;45.562;8.856;2024-01-25T23:56:43;128.13;;;88.40;;
